sensor_id;sensor_type;location;lat;lon;timestamp;temperature;humidity
8248;DHT22;4164;49.844;8.830;2024-03-22T00:01:11;8.60;99.90
8248;DHT22;4164;49.844;8.830;2024-03-22T00:03:37;8.70;99.90
8248;DHT22;4164;49.844;8.830;2024-03-22T00:06:02;8.80;99.90
8248;DHT22;4164;49.844;8.830;2024-03-22T00:08:28;8.60;99.90
8248;DHT22;4164;49.844;8.830;2024-03-22T00:10:53;8.40;99.90
8248;DHT22;4164;49.844;8.830;2024-03-22T00:13:22;8.30;99.90
8248;DHT22;4164;49.844;8.830;2024-03-22T00:15:50;8.50;99.90
8248;DHT22;4164;49.844;8.830;2024-03-22T00:18:16;8.50;99.90
8248;DHT22;4164;49.844;8.830;2024-03-22T00:20:41;8.30;99.90
8248;DHT22;4164;49.844;8.830;2024-03-22T00:23:07;8.50;99.90
8248;DHT22;4164;49.844;8.830;2024-03-22T00:25:32;8.60;99.90
8248;DHT22;4164;49.844;8.830;2024-03-22T00:27:58;8.50;99.90
8248;DHT22;4164;49.844;8.830;2024-03-22T00:30:23;8.50;99.90
8248;DHT22;4164;49.844;8.830;2024-03-22T00:32:49;8.40;99.90
8248;DHT22;4164;49.844;8.830;2024-03-22T00:35:14;8.50;99.90
8248;DHT22;4164;49.844;8.830;2024-03-22T00:37:40;8.40;99.90
8248;DHT22;4164;49.844;8.830;2024-03-22T00:40:06;8.30;99.90
8248;DHT22;4164;49.844;8.830;2024-03-22T00:42:31;8.40;99.90
8248;DHT22;4164;49.844;8.830;2024-03-22T00:45:00;8.40;99.90
8248;DHT22;4164;49.844;8.830;2024-03-22T00:47:25;8.40;99.90
8248;DHT22;4164;49.844;8.830;2024-03-22T00:49:54;8.10;99.90
8248;DHT22;4164;49.844;8.830;2024-03-22T00:52:23;8.10;99.90
8248;DHT22;4164;49.844;8.830;2024-03-22T00:54:50;8.20;99.90
8248;DHT22;4164;49.844;8.830;2024-03-22T00:57:15;8.00;99.90
8248;DHT22;4164;49.844;8.830;2024-03-22T00:59:41;7.80;99.90
8248;DHT22;4164;49.844;8.830;2024-03-22T01:02:07;7.80;99.90
8248;DHT22;4164;49.844;8.830;2024-03-22T01:04:35;7.80;99.90
8248;DHT22;4164;49.844;8.830;2024-03-22T01:07:00;8.10;99.90
8248;DHT22;4164;49.844;8.830;2024-03-22T01:09:26;7.80;99.90
8248;DHT22;4164;49.844;8.830;2024-03-22T01:11:51;7.80;99.90
8248;DHT22;4164;49.844;8.830;2024-03-22T01:14:17;7.90;99.90
8248;DHT22;4164;49.844;8.830;2024-03-22T01:16:42;8.00;99.90
8248;DHT22;4164;49.844;8.830;2024-03-22T01:19:08;7.90;99.90
8248;DHT22;4164;49.844;8.830;2024-03-22T01:21:34;7.90;99.90
8248;DHT22;4164;49.844;8.830;2024-03-22T01:24:03;7.90;99.90
8248;DHT22;4164;49.844;8.830;2024-03-22T01:26:29;7.90;99.90
8248;DHT22;4164;49.844;8.830;2024-03-22T01:28:57;7.60;99.90
8248;DHT22;4164;49.844;8.830;2024-03-22T01:31:23;7.60;99.90
8248;DHT22;4164;49.844;8.830;2024-03-22T01:33:48;7.80;99.90
8248;DHT22;4164;49.844;8.830;2024-03-22T01:36:14;7.60;99.90
8248;DHT22;4164;49.844;8.830;2024-03-22T01:38:39;7.70;99.90
8248;DHT22;4164;49.844;8.830;2024-03-22T01:41:05;7.70;99.90
8248;DHT22;4164;49.844;8.830;2024-03-22T01:43:32;7.70;99.90
8248;DHT22;4164;49.844;8.830;2024-03-22T01:45:58;7.70;99.90
8248;DHT22;4164;49.844;8.830;2024-03-22T01:48:23;7.70;99.90
8248;DHT22;4164;49.844;8.830;2024-03-22T01:50:50;7.60;99.90
8248;DHT22;4164;49.844;8.830;2024-03-22T01:53:16;7.60;99.90
8248;DHT22;4164;49.844;8.830;2024-03-22T01:55:42;7.70;99.90
8248;DHT22;4164;49.844;8.830;2024-03-22T01:58:11;7.60;99.90
8248;DHT22;4164;49.844;8.830;2024-03-22T02:00:37;7.60;99.90
8248;DHT22;4164;49.844;8.830;2024-03-22T02:03:04;7.40;99.90
8248;DHT22;4164;49.844;8.830;2024-03-22T02:05:29;7.40;99.90
8248;DHT22;4164;49.844;8.830;2024-03-22T02:07:58;7.20;99.90
8248;DHT22;4164;49.844;8.830;2024-03-22T02:10:24;7.20;99.90
8248;DHT22;4164;49.844;8.830;2024-03-22T02:12:49;7.20;99.90
8248;DHT22;4164;49.844;8.830;2024-03-22T02:15:15;7.10;99.90
8248;DHT22;4164;49.844;8.830;2024-03-22T02:17:40;7.10;99.90
8248;DHT22;4164;49.844;8.830;2024-03-22T02:20:06;7.20;99.90
8248;DHT22;4164;49.844;8.830;2024-03-22T02:22:33;7.20;99.90
8248;DHT22;4164;49.844;8.830;2024-03-22T02:24:58;7.20;99.90
8248;DHT22;4164;49.844;8.830;2024-03-22T02:27:25;7.20;99.90
8248;DHT22;4164;49.844;8.830;2024-03-22T02:29:51;7.30;99.90
8248;DHT22;4164;49.844;8.830;2024-03-22T02:32:20;7.30;99.90
8248;DHT22;4164;49.844;8.830;2024-03-22T02:34:45;7.20;99.90
8248;DHT22;4164;49.844;8.830;2024-03-22T02:37:11;7.10;99.90
8248;DHT22;4164;49.844;8.830;2024-03-22T02:39:36;7.20;99.90
8248;DHT22;4164;49.844;8.830;2024-03-22T02:42:02;7.20;99.90
8248;DHT22;4164;49.844;8.830;2024-03-22T02:44:27;7.20;99.90
8248;DHT22;4164;49.844;8.830;2024-03-22T02:46:53;7.10;99.90
8248;DHT22;4164;49.844;8.830;2024-03-22T02:49:22;6.90;1.00
8248;DHT22;4164;49.844;8.830;2024-03-22T02:51:47;6.90;1.00
8248;DHT22;4164;49.844;8.830;2024-03-22T02:54:16;6.80;1.00
8248;DHT22;4164;49.844;8.830;2024-03-22T02:56:41;6.80;1.00
8248;DHT22;4164;49.844;8.830;2024-03-22T02:59:10;6.80;1.00
8248;DHT22;4164;49.844;8.830;2024-03-22T03:01:35;6.70;1.00
8248;DHT22;4164;49.844;8.830;2024-03-22T03:04:01;7.00;1.00
8248;DHT22;4164;49.844;8.830;2024-03-22T03:06:26;6.90;1.00
8248;DHT22;4164;49.844;8.830;2024-03-22T03:08:52;6.90;99.90
8248;DHT22;4164;49.844;8.830;2024-03-22T03:11:17;6.80;1.00
8248;DHT22;4164;49.844;8.830;2024-03-22T03:13:43;6.80;1.00
8248;DHT22;4164;49.844;8.830;2024-03-22T03:16:08;6.70;1.00
8248;DHT22;4164;49.844;8.830;2024-03-22T03:18:34;6.70;1.00
8248;DHT22;4164;49.844;8.830;2024-03-22T03:20:59;6.90;1.00
8248;DHT22;4164;49.844;8.830;2024-03-22T03:23:25;6.90;1.00
8248;DHT22;4164;49.844;8.830;2024-03-22T03:25:50;7.00;1.00
8248;DHT22;4164;49.844;8.830;2024-03-22T03:28:16;6.90;1.00
8248;DHT22;4164;49.844;8.830;2024-03-22T03:30:43;6.90;1.00
8248;DHT22;4164;49.844;8.830;2024-03-22T03:33:09;6.90;1.00
8248;DHT22;4164;49.844;8.830;2024-03-22T03:35:35;7.00;1.00
8248;DHT22;4164;49.844;8.830;2024-03-22T03:38:00;7.00;1.00
8248;DHT22;4164;49.844;8.830;2024-03-22T03:40:26;7.10;99.90
8248;DHT22;4164;49.844;8.830;2024-03-22T03:42:53;6.90;1.00
8248;DHT22;4164;49.844;8.830;2024-03-22T03:45:19;6.90;1.00
8248;DHT22;4164;49.844;8.830;2024-03-22T03:47:44;6.90;1.00
8248;DHT22;4164;49.844;8.830;2024-03-22T03:50:10;7.00;1.00
8248;DHT22;4164;49.844;8.830;2024-03-22T03:52:35;7.00;99.90
8248;DHT22;4164;49.844;8.830;2024-03-22T03:55:01;7.00;99.90
8248;DHT22;4164;49.844;8.830;2024-03-22T03:57:27;7.00;1.00
8248;DHT22;4164;49.844;8.830;2024-03-22T03:59:52;7.10;99.90
8248;DHT22;4164;49.844;8.830;2024-03-22T04:02:18;7.20;99.90
8248;DHT22;4164;49.844;8.830;2024-03-22T04:04:43;7.20;99.90
8248;DHT22;4164;49.844;8.830;2024-03-22T04:07:09;7.20;99.90
8248;DHT22;4164;49.844;8.830;2024-03-22T04:09:34;7.20;99.90
8248;DHT22;4164;49.844;8.830;2024-03-22T04:12:03;7.10;99.90
8248;DHT22;4164;49.844;8.830;2024-03-22T04:14:31;7.50;1.00
8248;DHT22;4164;49.844;8.830;2024-03-22T04:17:00;7.30;99.90
8248;DHT22;4164;49.844;8.830;2024-03-22T04:19:25;7.30;99.90
8248;DHT22;4164;49.844;8.830;2024-03-22T04:21:51;7.30;99.90
8248;DHT22;4164;49.844;8.830;2024-03-22T04:24:16;7.30;99.90
8248;DHT22;4164;49.844;8.830;2024-03-22T04:26:42;7.30;99.90
8248;DHT22;4164;49.844;8.830;2024-03-22T04:29:07;7.30;99.90
8248;DHT22;4164;49.844;8.830;2024-03-22T04:31:33;7.30;99.90
8248;DHT22;4164;49.844;8.830;2024-03-22T04:33:59;7.30;99.90
8248;DHT22;4164;49.844;8.830;2024-03-22T04:36:24;7.20;99.90
8248;DHT22;4164;49.844;8.830;2024-03-22T04:38:50;7.20;99.90
8248;DHT22;4164;49.844;8.830;2024-03-22T04:41:15;7.20;99.90
8248;DHT22;4164;49.844;8.830;2024-03-22T04:43:41;7.30;99.90
8248;DHT22;4164;49.844;8.830;2024-03-22T04:46:06;7.30;99.90
8248;DHT22;4164;49.844;8.830;2024-03-22T04:48:32;7.30;99.90
8248;DHT22;4164;49.844;8.830;2024-03-22T04:50:57;7.30;99.90
8248;DHT22;4164;49.844;8.830;2024-03-22T04:53:23;7.20;99.90
8248;DHT22;4164;49.844;8.830;2024-03-22T04:55:49;7.30;99.90
8248;DHT22;4164;49.844;8.830;2024-03-22T04:58:17;7.40;99.90
8248;DHT22;4164;49.844;8.830;2024-03-22T05:00:43;7.40;99.90
8248;DHT22;4164;49.844;8.830;2024-03-22T05:03:09;7.40;99.90
8248;DHT22;4164;49.844;8.830;2024-03-22T05:05:35;7.40;99.90
8248;DHT22;4164;49.844;8.830;2024-03-22T05:08:05;7.40;99.90
8248;DHT22;4164;49.844;8.830;2024-03-22T05:10:30;7.40;99.90
8248;DHT22;4164;49.844;8.830;2024-03-22T05:12:59;7.50;99.90
8248;DHT22;4164;49.844;8.830;2024-03-22T05:15:25;7.60;99.90
8248;DHT22;4164;49.844;8.830;2024-03-22T05:17:52;7.50;99.90
8248;DHT22;4164;49.844;8.830;2024-03-22T05:20:17;7.60;99.90
8248;DHT22;4164;49.844;8.830;2024-03-22T05:22:43;7.50;99.90
8248;DHT22;4164;49.844;8.830;2024-03-22T05:25:09;7.40;99.90
8248;DHT22;4164;49.844;8.830;2024-03-22T05:27:35;7.60;99.90
8248;DHT22;4164;49.844;8.830;2024-03-22T05:30:02;7.80;99.90
8248;DHT22;4164;49.844;8.830;2024-03-22T05:32:29;8.10;99.90
8248;DHT22;4164;49.844;8.830;2024-03-22T05:34:55;8.10;99.90
8248;DHT22;4164;49.844;8.830;2024-03-22T05:37:20;8.00;99.90
8248;DHT22;4164;49.844;8.830;2024-03-22T05:39:46;8.10;99.90
8248;DHT22;4164;49.844;8.830;2024-03-22T05:42:11;8.20;99.90
8248;DHT22;4164;49.844;8.830;2024-03-22T05:44:37;8.20;99.90
8248;DHT22;4164;49.844;8.830;2024-03-22T05:47:03;8.10;99.90
8248;DHT22;4164;49.844;8.830;2024-03-22T05:49:28;8.30;99.90
8248;DHT22;4164;49.844;8.830;2024-03-22T05:51:55;8.40;99.90
8248;DHT22;4164;49.844;8.830;2024-03-22T05:54:20;8.60;99.90
8248;DHT22;4164;49.844;8.830;2024-03-22T05:56:46;8.70;99.90
8248;DHT22;4164;49.844;8.830;2024-03-22T05:59:11;8.70;99.90
8248;DHT22;4164;49.844;8.830;2024-03-22T06:01:37;8.70;99.90
8248;DHT22;4164;49.844;8.830;2024-03-22T06:04:06;8.60;99.90
8248;DHT22;4164;49.844;8.830;2024-03-22T06:06:40;8.60;99.90
8248;DHT22;4164;49.844;8.830;2024-03-22T06:09:06;8.90;99.90
8248;DHT22;4164;49.844;8.830;2024-03-22T06:11:35;9.00;99.90
8248;DHT22;4164;49.844;8.830;2024-03-22T06:14:03;9.20;99.90
8248;DHT22;4164;49.844;8.830;2024-03-22T06:16:29;9.20;99.90
8248;DHT22;4164;49.844;8.830;2024-03-22T06:18:55;9.10;99.90
8248;DHT22;4164;49.844;8.830;2024-03-22T06:21:20;9.20;99.90
8248;DHT22;4164;49.844;8.830;2024-03-22T06:23:50;9.40;99.90
8248;DHT22;4164;49.844;8.830;2024-03-22T06:26:16;9.60;99.90
8248;DHT22;4164;49.844;8.830;2024-03-22T06:28:42;9.70;99.90
8248;DHT22;4164;49.844;8.830;2024-03-22T06:31:07;9.70;99.90
8248;DHT22;4164;49.844;8.830;2024-03-22T06:33:33;9.90;99.90
8248;DHT22;4164;49.844;8.830;2024-03-22T06:35:59;10.20;99.90
8248;DHT22;4164;49.844;8.830;2024-03-22T06:38:25;10.20;99.90
8248;DHT22;4164;49.844;8.830;2024-03-22T06:40:50;10.30;99.90
8248;DHT22;4164;49.844;8.830;2024-03-22T06:43:16;10.40;99.90
8248;DHT22;4164;49.844;8.830;2024-03-22T06:45:41;10.60;99.90
8248;DHT22;4164;49.844;8.830;2024-03-22T06:48:07;10.60;99.90
8248;DHT22;4164;49.844;8.830;2024-03-22T06:50:32;10.70;99.90
8248;DHT22;4164;49.844;8.830;2024-03-22T06:52:58;10.80;99.90
8248;DHT22;4164;49.844;8.830;2024-03-22T06:55:24;11.00;99.90
8248;DHT22;4164;49.844;8.830;2024-03-22T06:57:50;11.10;99.90
8248;DHT22;4164;49.844;8.830;2024-03-22T07:00:16;11.20;99.90
8248;DHT22;4164;49.844;8.830;2024-03-22T07:02:42;11.50;99.90
8248;DHT22;4164;49.844;8.830;2024-03-22T07:05:08;11.80;99.90
8248;DHT22;4164;49.844;8.830;2024-03-22T07:07:40;12.10;99.90
8248;DHT22;4164;49.844;8.830;2024-03-22T07:10:05;12.50;99.90
8248;DHT22;4164;49.844;8.830;2024-03-22T07:12:34;12.80;99.90
8248;DHT22;4164;49.844;8.830;2024-03-22T07:15:00;13.20;99.90
8248;DHT22;4164;49.844;8.830;2024-03-22T07:17:26;13.10;99.90
8248;DHT22;4164;49.844;8.830;2024-03-22T07:19:52;13.50;99.90
8248;DHT22;4164;49.844;8.830;2024-03-22T07:22:18;13.70;99.90
8248;DHT22;4164;49.844;8.830;2024-03-22T07:24:44;13.20;99.90
8248;DHT22;4164;49.844;8.830;2024-03-22T07:27:10;13.30;99.90
8248;DHT22;4164;49.844;8.830;2024-03-22T07:29:36;13.30;99.90
8248;DHT22;4164;49.844;8.830;2024-03-22T07:32:01;13.60;99.90
8248;DHT22;4164;49.844;8.830;2024-03-22T07:34:27;13.80;99.90
8248;DHT22;4164;49.844;8.830;2024-03-22T07:36:53;13.50;99.90
8248;DHT22;4164;49.844;8.830;2024-03-22T07:39:18;13.40;99.90
8248;DHT22;4164;49.844;8.830;2024-03-22T07:41:47;13.50;99.90
8248;DHT22;4164;49.844;8.830;2024-03-22T07:44:12;13.70;99.90
8248;DHT22;4164;49.844;8.830;2024-03-22T07:46:38;13.60;99.90
8248;DHT22;4164;49.844;8.830;2024-03-22T07:49:03;13.80;99.90
8248;DHT22;4164;49.844;8.830;2024-03-22T07:51:30;13.80;99.90
8248;DHT22;4164;49.844;8.830;2024-03-22T07:53:55;13.80;99.90
8248;DHT22;4164;49.844;8.830;2024-03-22T07:56:21;13.90;99.90
8248;DHT22;4164;49.844;8.830;2024-03-22T07:58:47;14.20;99.90
8248;DHT22;4164;49.844;8.830;2024-03-22T08:01:12;14.00;99.90
8248;DHT22;4164;49.844;8.830;2024-03-22T08:03:38;14.00;99.90
8248;DHT22;4164;49.844;8.830;2024-03-22T08:06:04;13.90;99.90
8248;DHT22;4164;49.844;8.830;2024-03-22T08:08:29;13.90;99.90
8248;DHT22;4164;49.844;8.830;2024-03-22T08:10:55;13.80;99.90
8248;DHT22;4164;49.844;8.830;2024-03-22T08:13:23;13.80;99.90
8248;DHT22;4164;49.844;8.830;2024-03-22T08:15:49;13.70;99.90
8248;DHT22;4164;49.844;8.830;2024-03-22T08:18:14;14.00;99.90
8248;DHT22;4164;49.844;8.830;2024-03-22T08:20:40;13.70;99.90
8248;DHT22;4164;49.844;8.830;2024-03-22T08:23:06;14.00;99.90
8248;DHT22;4164;49.844;8.830;2024-03-22T08:25:31;14.20;99.90
8248;DHT22;4164;49.844;8.830;2024-03-22T08:27:57;14.10;99.90
8248;DHT22;4164;49.844;8.830;2024-03-22T08:30:24;14.20;99.90
8248;DHT22;4164;49.844;8.830;2024-03-22T08:32:50;14.30;99.90
8248;DHT22;4164;49.844;8.830;2024-03-22T08:35:16;14.10;99.90
8248;DHT22;4164;49.844;8.830;2024-03-22T08:37:42;14.20;99.90
8248;DHT22;4164;49.844;8.830;2024-03-22T08:40:07;14.10;99.90
8248;DHT22;4164;49.844;8.830;2024-03-22T08:42:33;14.10;99.90
8248;DHT22;4164;49.844;8.830;2024-03-22T08:44:59;14.10;99.90
8248;DHT22;4164;49.844;8.830;2024-03-22T08:47:24;14.40;99.90
8248;DHT22;4164;49.844;8.830;2024-03-22T08:49:51;14.40;99.90
8248;DHT22;4164;49.844;8.830;2024-03-22T08:52:16;14.50;99.90
8248;DHT22;4164;49.844;8.830;2024-03-22T08:54:42;14.30;99.90
8248;DHT22;4164;49.844;8.830;2024-03-22T08:57:07;14.10;99.90
8248;DHT22;4164;49.844;8.830;2024-03-22T08:59:33;14.10;99.90
8248;DHT22;4164;49.844;8.830;2024-03-22T09:01:58;14.20;99.90
8248;DHT22;4164;49.844;8.830;2024-03-22T09:04:26;14.30;99.90
8248;DHT22;4164;49.844;8.830;2024-03-22T09:06:52;14.10;99.90
8248;DHT22;4164;49.844;8.830;2024-03-22T09:09:17;14.10;99.90
8248;DHT22;4164;49.844;8.830;2024-03-22T09:11:43;14.20;99.90
8248;DHT22;4164;49.844;8.830;2024-03-22T09:14:09;14.30;99.90
8248;DHT22;4164;49.844;8.830;2024-03-22T09:16:37;14.30;99.90
8248;DHT22;4164;49.844;8.830;2024-03-22T09:19:02;14.30;99.90
8248;DHT22;4164;49.844;8.830;2024-03-22T09:21:28;14.30;99.90
8248;DHT22;4164;49.844;8.830;2024-03-22T09:23:53;14.30;99.90
8248;DHT22;4164;49.844;8.830;2024-03-22T09:26:19;14.30;99.90
8248;DHT22;4164;49.844;8.830;2024-03-22T09:28:51;14.40;99.90
8248;DHT22;4164;49.844;8.830;2024-03-22T09:31:16;14.50;99.90
8248;DHT22;4164;49.844;8.830;2024-03-22T09:33:43;14.50;99.90
8248;DHT22;4164;49.844;8.830;2024-03-22T09:36:08;14.60;99.90
8248;DHT22;4164;49.844;8.830;2024-03-22T09:38:34;14.70;99.90
8248;DHT22;4164;49.844;8.830;2024-03-22T09:41:00;14.70;99.90
8248;DHT22;4164;49.844;8.830;2024-03-22T09:43:27;15.10;99.90
8248;DHT22;4164;49.844;8.830;2024-03-22T09:45:56;15.10;99.90
8248;DHT22;4164;49.844;8.830;2024-03-22T09:48:22;15.30;99.90
8248;DHT22;4164;49.844;8.830;2024-03-22T09:50:49;15.30;99.90
8248;DHT22;4164;49.844;8.830;2024-03-22T09:53:19;15.20;99.90
8248;DHT22;4164;49.844;8.830;2024-03-22T09:55:47;15.10;99.90
8248;DHT22;4164;49.844;8.830;2024-03-22T09:58:13;15.10;99.90
8248;DHT22;4164;49.844;8.830;2024-03-22T10:00:38;15.40;99.90
8248;DHT22;4164;49.844;8.830;2024-03-22T10:03:04;15.70;99.90
8248;DHT22;4164;49.844;8.830;2024-03-22T10:05:33;15.80;99.90
8248;DHT22;4164;49.844;8.830;2024-03-22T10:08:02;15.40;99.90
8248;DHT22;4164;49.844;8.830;2024-03-22T10:10:28;15.70;99.90
8248;DHT22;4164;49.844;8.830;2024-03-22T10:12:53;15.60;99.90
8248;DHT22;4164;49.844;8.830;2024-03-22T10:15:19;15.90;99.90
8248;DHT22;4164;49.844;8.830;2024-03-22T10:17:45;15.90;99.90
8248;DHT22;4164;49.844;8.830;2024-03-22T10:20:13;15.70;99.90
8248;DHT22;4164;49.844;8.830;2024-03-22T10:22:49;15.70;99.90
8248;DHT22;4164;49.844;8.830;2024-03-22T10:25:20;16.00;99.90
8248;DHT22;4164;49.844;8.830;2024-03-22T10:27:45;16.00;99.90
8248;DHT22;4164;49.844;8.830;2024-03-22T10:30:12;15.90;99.90
8248;DHT22;4164;49.844;8.830;2024-03-22T10:32:40;15.70;99.90
8248;DHT22;4164;49.844;8.830;2024-03-22T10:35:07;15.80;99.90
8248;DHT22;4164;49.844;8.830;2024-03-22T10:37:34;16.00;99.90
8248;DHT22;4164;49.844;8.830;2024-03-22T10:40:03;16.10;99.90
8248;DHT22;4164;49.844;8.830;2024-03-22T10:42:39;16.20;99.90
8248;DHT22;4164;49.844;8.830;2024-03-22T10:45:06;16.30;99.90
8248;DHT22;4164;49.844;8.830;2024-03-22T10:47:33;16.20;99.90
8248;DHT22;4164;49.844;8.830;2024-03-22T10:50:10;16.10;99.90
8248;DHT22;4164;49.844;8.830;2024-03-22T10:52:48;16.60;99.90
8248;DHT22;4164;49.844;8.830;2024-03-22T10:55:24;16.30;99.90
8248;DHT22;4164;49.844;8.830;2024-03-22T10:57:50;16.30;99.90
8248;DHT22;4164;49.844;8.830;2024-03-22T11:00:17;16.50;99.90
8248;DHT22;4164;49.844;8.830;2024-03-22T11:02:53;16.60;99.90
8248;DHT22;4164;49.844;8.830;2024-03-22T11:05:19;16.80;99.90
8248;DHT22;4164;49.844;8.830;2024-03-22T11:07:47;16.90;99.90
8248;DHT22;4164;49.844;8.830;2024-03-22T11:10:14;16.70;99.90
8248;DHT22;4164;49.844;8.830;2024-03-22T11:12:40;16.60;99.90
8248;DHT22;4164;49.844;8.830;2024-03-22T11:15:07;16.90;99.90
8248;DHT22;4164;49.844;8.830;2024-03-22T11:17:32;17.40;99.90
8248;DHT22;4164;49.844;8.830;2024-03-22T11:19:58;17.30;99.90
8248;DHT22;4164;49.844;8.830;2024-03-22T11:22:25;16.90;99.90
8248;DHT22;4164;49.844;8.830;2024-03-22T11:24:54;16.70;99.90
8248;DHT22;4164;49.844;8.830;2024-03-22T11:27:19;16.80;99.90
8248;DHT22;4164;49.844;8.830;2024-03-22T11:29:45;17.10;99.90
8248;DHT22;4164;49.844;8.830;2024-03-22T11:32:12;17.50;99.90
8248;DHT22;4164;49.844;8.830;2024-03-22T11:34:39;17.60;99.90
8248;DHT22;4164;49.844;8.830;2024-03-22T11:37:06;17.90;99.90
8248;DHT22;4164;49.844;8.830;2024-03-22T11:39:39;17.70;99.90
8248;DHT22;4164;49.844;8.830;2024-03-22T11:42:05;17.40;99.90
8248;DHT22;4164;49.844;8.830;2024-03-22T11:44:33;18.20;99.90
8248;DHT22;4164;49.844;8.830;2024-03-22T11:46:59;18.90;99.90
8248;DHT22;4164;49.844;8.830;2024-03-22T11:49:25;19.10;99.90
8248;DHT22;4164;49.844;8.830;2024-03-22T11:51:56;18.80;99.90
8248;DHT22;4164;49.844;8.830;2024-03-22T11:54:22;18.50;99.90
8248;DHT22;4164;49.844;8.830;2024-03-22T11:56:47;18.30;99.90
8248;DHT22;4164;49.844;8.830;2024-03-22T11:59:13;17.70;99.90
8248;DHT22;4164;49.844;8.830;2024-03-22T12:01:41;17.80;99.90
8248;DHT22;4164;49.844;8.830;2024-03-22T12:04:07;17.80;99.90
8248;DHT22;4164;49.844;8.830;2024-03-22T12:06:36;18.10;99.90
8248;DHT22;4164;49.844;8.830;2024-03-22T12:09:02;18.40;99.90
8248;DHT22;4164;49.844;8.830;2024-03-22T12:11:29;18.20;99.90
8248;DHT22;4164;49.844;8.830;2024-03-22T12:13:55;17.80;99.90
8248;DHT22;4164;49.844;8.830;2024-03-22T12:16:20;17.00;99.90
8248;DHT22;4164;49.844;8.830;2024-03-22T12:18:46;17.50;99.90
8248;DHT22;4164;49.844;8.830;2024-03-22T12:21:11;17.40;99.90
8248;DHT22;4164;49.844;8.830;2024-03-22T12:23:37;17.90;99.90
8248;DHT22;4164;49.844;8.830;2024-03-22T12:26:02;17.80;99.90
8248;DHT22;4164;49.844;8.830;2024-03-22T12:28:28;17.40;99.90
8248;DHT22;4164;49.844;8.830;2024-03-22T12:30:53;17.40;99.90
8248;DHT22;4164;49.844;8.830;2024-03-22T12:33:19;18.30;99.90
8248;DHT22;4164;49.844;8.830;2024-03-22T12:35:45;20.40;99.90
8248;DHT22;4164;49.844;8.830;2024-03-22T12:38:12;21.90;99.90
8248;DHT22;4164;49.844;8.830;2024-03-22T12:40:39;23.70;99.90
8248;DHT22;4164;49.844;8.830;2024-03-22T12:43:05;24.40;99.90
8248;DHT22;4164;49.844;8.830;2024-03-22T12:45:31;23.20;99.90
8248;DHT22;4164;49.844;8.830;2024-03-22T12:47:58;22.80;99.90
8248;DHT22;4164;49.844;8.830;2024-03-22T12:50:24;21.90;99.90
8248;DHT22;4164;49.844;8.830;2024-03-22T12:52:50;20.70;99.90
8248;DHT22;4164;49.844;8.830;2024-03-22T12:55:15;19.60;99.90
8248;DHT22;4164;49.844;8.830;2024-03-22T12:57:44;21.10;99.90
8248;DHT22;4164;49.844;8.830;2024-03-22T13:00:10;21.90;99.90
8248;DHT22;4164;49.844;8.830;2024-03-22T13:02:43;21.80;99.90
8248;DHT22;4164;49.844;8.830;2024-03-22T13:05:09;22.90;99.90
8248;DHT22;4164;49.844;8.830;2024-03-22T13:07:36;21.40;99.90
8248;DHT22;4164;49.844;8.830;2024-03-22T13:10:01;21.40;99.90
8248;DHT22;4164;49.844;8.830;2024-03-22T13:12:28;19.70;99.70
8248;DHT22;4164;49.844;8.830;2024-03-22T13:14:56;19.00;99.90
8248;DHT22;4164;49.844;8.830;2024-03-22T13:17:22;19.70;99.90
8248;DHT22;4164;49.844;8.830;2024-03-22T13:19:48;20.40;99.90
8248;DHT22;4164;49.844;8.830;2024-03-22T13:22:13;20.80;99.90
8248;DHT22;4164;49.844;8.830;2024-03-22T13:24:42;20.30;99.90
8248;DHT22;4164;49.844;8.830;2024-03-22T13:27:08;19.90;99.90
8248;DHT22;4164;49.844;8.830;2024-03-22T13:29:33;18.90;99.90
8248;DHT22;4164;49.844;8.830;2024-03-22T13:31:59;19.20;99.90
8248;DHT22;4164;49.844;8.830;2024-03-22T13:34:24;18.40;99.10
8248;DHT22;4164;49.844;8.830;2024-03-22T13:36:51;18.20;99.10
8248;DHT22;4164;49.844;8.830;2024-03-22T13:39:16;18.00;98.50
8248;DHT22;4164;49.844;8.830;2024-03-22T13:41:42;17.90;98.60
8248;DHT22;4164;49.844;8.830;2024-03-22T13:44:07;18.00;99.20
8248;DHT22;4164;49.844;8.830;2024-03-22T13:46:33;17.60;98.50
8248;DHT22;4164;49.844;8.830;2024-03-22T13:49:03;17.30;99.90
8248;DHT22;4164;49.844;8.830;2024-03-22T13:51:29;17.30;99.90
8248;DHT22;4164;49.844;8.830;2024-03-22T13:53:59;17.20;99.90
8248;DHT22;4164;49.844;8.830;2024-03-22T13:56:25;17.40;99.70
8248;DHT22;4164;49.844;8.830;2024-03-22T13:58:50;17.70;99.90
8248;DHT22;4164;49.844;8.830;2024-03-22T14:01:16;17.90;99.90
8248;DHT22;4164;49.844;8.830;2024-03-22T14:03:42;17.60;99.90
8248;DHT22;4164;49.844;8.830;2024-03-22T14:06:07;17.70;99.90
8248;DHT22;4164;49.844;8.830;2024-03-22T14:08:33;17.60;99.90
8248;DHT22;4164;49.844;8.830;2024-03-22T14:10:58;17.70;99.90
8248;DHT22;4164;49.844;8.830;2024-03-22T14:13:24;17.70;99.90
8248;DHT22;4164;49.844;8.830;2024-03-22T14:15:53;17.70;99.90
8248;DHT22;4164;49.844;8.830;2024-03-22T14:18:18;17.70;99.90
8248;DHT22;4164;49.844;8.830;2024-03-22T14:20:44;17.50;99.90
8248;DHT22;4164;49.844;8.830;2024-03-22T14:23:09;17.50;99.90
8248;DHT22;4164;49.844;8.830;2024-03-22T14:25:35;17.40;99.90
8248;DHT22;4164;49.844;8.830;2024-03-22T14:28:00;17.10;99.90
8248;DHT22;4164;49.844;8.830;2024-03-22T14:30:26;17.10;99.90
8248;DHT22;4164;49.844;8.830;2024-03-22T14:32:51;17.10;99.90
8248;DHT22;4164;49.844;8.830;2024-03-22T14:35:18;17.00;99.90
8248;DHT22;4164;49.844;8.830;2024-03-22T14:37:43;16.80;99.90
8248;DHT22;4164;49.844;8.830;2024-03-22T14:40:12;16.90;99.90
8248;DHT22;4164;49.844;8.830;2024-03-22T14:42:40;17.00;99.90
8248;DHT22;4164;49.844;8.830;2024-03-22T14:45:05;16.90;99.90
8248;DHT22;4164;49.844;8.830;2024-03-22T14:47:36;16.90;99.90
8248;DHT22;4164;49.844;8.830;2024-03-22T14:50:05;16.80;99.90
8248;DHT22;4164;49.844;8.830;2024-03-22T14:52:30;17.00;99.90
8248;DHT22;4164;49.844;8.830;2024-03-22T14:54:59;16.90;99.90
8248;DHT22;4164;49.844;8.830;2024-03-22T14:57:27;16.90;99.90
8248;DHT22;4164;49.844;8.830;2024-03-22T14:59:53;16.90;99.90
8248;DHT22;4164;49.844;8.830;2024-03-22T15:02:18;16.80;99.90
8248;DHT22;4164;49.844;8.830;2024-03-22T15:04:44;16.60;99.90
8248;DHT22;4164;49.844;8.830;2024-03-22T15:07:09;16.70;99.90
8248;DHT22;4164;49.844;8.830;2024-03-22T15:09:35;16.60;99.90
8248;DHT22;4164;49.844;8.830;2024-03-22T15:12:04;16.60;99.90
8248;DHT22;4164;49.844;8.830;2024-03-22T15:14:30;16.50;99.90
8248;DHT22;4164;49.844;8.830;2024-03-22T15:16:56;16.50;99.90
8248;DHT22;4164;49.844;8.830;2024-03-22T15:19:25;16.50;99.90
8248;DHT22;4164;49.844;8.830;2024-03-22T15:21:50;16.50;99.90
8248;DHT22;4164;49.844;8.830;2024-03-22T15:24:17;16.60;99.90
8248;DHT22;4164;49.844;8.830;2024-03-22T15:26:43;16.50;99.90
8248;DHT22;4164;49.844;8.830;2024-03-22T15:29:08;16.50;99.90
8248;DHT22;4164;49.844;8.830;2024-03-22T15:31:34;16.80;99.90
8248;DHT22;4164;49.844;8.830;2024-03-22T15:33:59;16.80;99.90
8248;DHT22;4164;49.844;8.830;2024-03-22T15:36:25;16.80;99.90
8248;DHT22;4164;49.844;8.830;2024-03-22T15:38:50;16.60;99.90
8248;DHT22;4164;49.844;8.830;2024-03-22T15:41:18;16.70;99.90
8248;DHT22;4164;49.844;8.830;2024-03-22T15:43:45;16.90;99.90
8248;DHT22;4164;49.844;8.830;2024-03-22T15:46:10;16.90;99.90
8248;DHT22;4164;49.844;8.830;2024-03-22T15:48:38;16.90;99.90
8248;DHT22;4164;49.844;8.830;2024-03-22T15:51:04;17.00;99.90
8248;DHT22;4164;49.844;8.830;2024-03-22T15:53:32;17.00;99.90
8248;DHT22;4164;49.844;8.830;2024-03-22T15:55:58;17.10;99.90
8248;DHT22;4164;49.844;8.830;2024-03-22T15:58:23;17.50;99.90
8248;DHT22;4164;49.844;8.830;2024-03-22T16:00:50;17.80;99.90
8248;DHT22;4164;49.844;8.830;2024-03-22T16:03:21;17.80;99.90